Smugglers Notch, Vermont
Current Conditions -  °F | °C
As of 5:54 PM on Thursday 27 Nov 2014 (Local Time) from KMVL Reporting Station
Overcast Overcast  
Wind Chill: 21°   Ceiling: 2100
Heat Index: 26°   Visibility: 10mi
Dew Point: 19°   Wind: 5mph
Humidity: 75%   Direction: 330°NNW
Pressure: 30.02"   Gusts: NA
Location:  44.6639°N, 72.7787°W
Report Text: KMVL 272254Z AUTO 33004KT 10SM OVC021 M03/M07 A3002 RMK AO2 SLP177 T10331072 TSNO
Loading
Personal Weather Stations






























Interactive Weather Map New forecast layout! Learn more

10-Day Weather Forecast

Advertisements
Track Severe Weather on mobile